CMA225 LFPG-LOWW
Flight info
| Callsign | CMA225 |
|---|---|
| Flight time | 1h 27m |
| Altitude | 35000 |
| Route | LANVII6H/08L LANVI DCT LUPEN UM164 UTABA L607 MOMUK DCT BERAS T23 BIRGI DCT NEMAL NEMAL2W |
| Aircraft | B77L/H-SDE1E2E3FGHIJ2J3J4J5M1RWXY/LB1D1 |
Departure
| Time | 2026-04-25 17:58 |
|---|---|
| Airport | Charles de Gaulle International Airport (LFPG) |
Arrival
| Time | 2026-04-25 19:25 |
|---|---|
| Airport | Vienna International Airport (LOWW) |
| Time | Latitude | Longitude | Altitude | Speed | Heading |
|---|---|---|---|---|---|
| 2026-04-25 17:07 | 48.99999 | 2.54099 | 365 ft | 0 kts | 356° |
| 2026-04-25 17:36 | 48.99997 | 2.54099 | 359 ft | 2 kts | 356° |
| 2026-04-25 17:37 | 48.99972 | 2.54102 | 367 ft | 4 kts | 355° |
| 2026-04-25 17:37 | 48.99949 | 2.54103 | 365 ft | 4 kts | 7° |
| 2026-04-25 17:37 | 48.99933 | 2.54098 | 366 ft | 4 kts | 30° |
| 2026-04-25 17:37 | 48.99913 | 2.54058 | 368 ft | 4 kts | 79° |
| 2026-04-25 17:38 | 48.99911 | 2.54034 | 363 ft | 1 kts | 86° |
| 2026-04-25 17:42 | 48.99911 | 2.54035 | 359 ft | 0 kts | 85° |
| 2026-04-25 17:42 | 48.99912 | 2.54051 | 359 ft | 3 kts | 85° |
| 2026-04-25 17:42 | 48.99914 | 2.54091 | 362 ft | 5 kts | 85° |
| 2026-04-25 17:43 | 48.99917 | 2.54154 | 366 ft | 7 kts | 85° |
| 2026-04-25 17:43 | 48.99910 | 2.54207 | 365 ft | 5 kts | 122° |
| 2026-04-25 17:43 | 48.99879 | 2.54240 | 364 ft | 6 kts | 151° |
| 2026-04-25 17:43 | 48.99843 | 2.54290 | 365 ft | 8 kts | 113° |
| 2026-04-25 17:44 | 48.99839 | 2.54380 | 359 ft | 9 kts | 85° |
| 2026-04-25 17:44 | 48.99846 | 2.54486 | 365 ft | 11 kts | 85° |
| 2026-04-25 17:44 | 48.99852 | 2.54607 | 363 ft | 12 kts | 86° |
| 2026-04-25 17:44 | 48.99859 | 2.54743 | 368 ft | 14 kts | 85° |
| 2026-04-25 17:45 | 48.99866 | 2.54892 | 361 ft | 15 kts | 86° |
| 2026-04-25 17:45 | 48.99869 | 2.54945 | 362 ft | 0 kts | 85° |
| 2026-04-25 17:45 | 48.99867 | 2.54973 | 364 ft | 6 kts | 99° |
| 2026-04-25 17:45 | 48.99837 | 2.55034 | 365 ft | 8 kts | 151° |
| 2026-04-25 17:46 | 48.99786 | 2.55063 | 366 ft | 8 kts | 162° |
| 2026-04-25 17:46 | 48.99733 | 2.55087 | 363 ft | 8 kts | 164° |
| 2026-04-25 17:46 | 48.99705 | 2.55096 | 366 ft | 2 kts | 168° |
| 2026-04-25 17:46 | 48.99690 | 2.55104 | 362 ft | 2 kts | 157° |
| 2026-04-25 17:47 | 48.99683 | 2.55110 | 363 ft | 0 kts | 151° |
| 2026-04-25 17:55 | 48.99681 | 2.55111 | 359 ft | 2 kts | 150° |
| 2026-04-25 17:56 | 48.99660 | 2.55147 | 366 ft | 5 kts | 120° |
| 2026-04-25 17:56 | 48.99637 | 2.55212 | 365 ft | 11 kts | 118° |
| 2026-04-25 17:56 | 48.99595 | 2.55324 | 363 ft | 13 kts | 121° |
| 2026-04-25 17:56 | 48.99580 | 2.55413 | 362 ft | 0 kts | 87° |
| 2026-04-25 17:57 | 48.99582 | 2.55467 | 362 ft | 25 kts | 86° |
| 2026-04-25 17:57 | 48.99618 | 2.56127 | 360 ft | 98 kts | 85° |
| 2026-04-25 17:57 | 48.99691 | 2.57477 | 361 ft | 155 kts | 84° |
| 2026-04-25 17:57 | 48.99732 | 2.58053 | 376 ft | 168 kts | 83° |
| 2026-04-25 17:58 | 48.99862 | 2.60978 | 1358 ft | 169 kts | 81° |
| 2026-04-25 17:58 | 48.99956 | 2.62791 | 1928 ft | 172 kts | 83° |
| 2026-04-25 17:58 | 49.00057 | 2.64664 | 2419 ft | 187 kts | 83° |
| 2026-04-25 17:58 | 49.00175 | 2.66776 | 2672 ft | 214 kts | 82° |
| 2026-04-25 17:59 | 49.00314 | 2.69199 | 2879 ft | 244 kts | 83° |
| 2026-04-25 17:59 | 49.00457 | 2.71843 | 3516 ft | 254 kts | 83° |
| 2026-04-25 17:59 | 49.00597 | 2.74574 | 4255 ft | 263 kts | 84° |
| 2026-04-25 17:59 | 49.00733 | 2.77391 | 5002 ft | 270 kts | 86° |
| 2026-04-25 18:00 | 49.00609 | 2.80283 | 5736 ft | 276 kts | 98° |
| 2026-04-25 18:00 | 49.00267 | 2.83145 | 6705 ft | 275 kts | 99° |
| 2026-04-25 18:00 | 48.99918 | 2.86018 | 7496 ft | 278 kts | 98° |
| 2026-04-25 18:00 | 48.99585 | 2.88956 | 8213 ft | 284 kts | 98° |
| 2026-04-25 18:01 | 48.99261 | 2.91947 | 8993 ft | 289 kts | 97° |
| 2026-04-25 18:01 | 48.98938 | 2.94983 | 9767 ft | 293 kts | 98° |
| 2026-04-25 18:01 | 48.98639 | 2.98065 | 10497 ft | 297 kts | 96° |
| 2026-04-25 18:01 | 48.98370 | 3.01280 | 10845 ft | 318 kts | 95° |
| 2026-04-25 18:02 | 48.98088 | 3.04770 | 11035 ft | 345 kts | 96° |
| 2026-04-25 18:02 | 48.97783 | 3.08528 | 11236 ft | 371 kts | 96° |
| 2026-04-25 18:02 | 48.97455 | 3.12505 | 11804 ft | 384 kts | 96° |
| 2026-04-25 18:02 | 48.97114 | 3.16580 | 12623 ft | 392 kts | 96° |
| 2026-04-25 18:03 | 48.96763 | 3.20726 | 13541 ft | 398 kts | 97° |
| 2026-04-25 18:03 | 48.96405 | 3.24938 | 14375 ft | 405 kts | 97° |
| 2026-04-25 18:03 | 48.96038 | 3.29219 | 15174 ft | 410 kts | 97° |
| 2026-04-25 18:03 | 48.95667 | 3.33544 | 15982 ft | 415 kts | 96° |
| 2026-04-25 18:04 | 48.95288 | 3.37932 | 16776 ft | 421 kts | 96° |
| 2026-04-25 18:04 | 48.94903 | 3.42377 | 17562 ft | 426 kts | 96° |
| 2026-04-25 18:04 | 48.94513 | 3.46875 | 18319 ft | 432 kts | 96° |
| 2026-04-25 18:04 | 48.94114 | 3.51438 | 18973 ft | 437 kts | 96° |
| 2026-04-25 18:05 | 48.93715 | 3.56061 | 19178 ft | 443 kts | 95° |
| 2026-04-25 18:05 | 48.93411 | 3.60721 | 19154 ft | 442 kts | 93° |
| 2026-04-25 18:05 | 48.93177 | 3.65371 | 19155 ft | 440 kts | 92° |
| 2026-04-25 18:05 | 48.92960 | 3.70011 | 19148 ft | 440 kts | 92° |
| 2026-04-25 18:06 | 48.92739 | 3.74650 | 19149 ft | 440 kts | 93° |
| 2026-04-25 18:06 | 48.92507 | 3.79297 | 19151 ft | 441 kts | 93° |
| 2026-04-25 18:06 | 48.92179 | 3.83930 | 19155 ft | 441 kts | 96° |
| 2026-04-25 18:06 | 48.91714 | 3.88548 | 19285 ft | 444 kts | 98° |
| 2026-04-25 18:07 | 48.91189 | 3.93188 | 19970 ft | 447 kts | 99° |
| 2026-04-25 18:07 | 48.90649 | 3.97852 | 20739 ft | 449 kts | 99° |
| 2026-04-25 18:07 | 48.90108 | 4.02546 | 21462 ft | 452 kts | 99° |
| 2026-04-25 18:07 | 48.89570 | 4.07282 | 22115 ft | 457 kts | 99° |
| 2026-04-25 18:08 | 48.89035 | 4.12065 | 22760 ft | 462 kts | 99° |
| 2026-04-25 18:08 | 48.88499 | 4.16905 | 23416 ft | 466 kts | 99° |
| 2026-04-25 18:08 | 48.87961 | 4.21774 | 24009 ft | 470 kts | 99° |
| 2026-04-25 18:08 | 48.87418 | 4.26692 | 24571 ft | 474 kts | 99° |
| 2026-04-25 18:09 | 48.86870 | 4.31650 | 25107 ft | 477 kts | 99° |
| 2026-04-25 18:09 | 48.86315 | 4.36639 | 25638 ft | 481 kts | 99° |
| 2026-04-25 18:09 | 48.85753 | 4.41672 | 26124 ft | 486 kts | 99° |
| 2026-04-25 18:09 | 48.85569 | 4.43317 | 26279 ft | 488 kts | 99° |
| 2026-04-25 18:10 | 48.84802 | 4.50142 | 26980 ft | 492 kts | 99° |
| 2026-04-25 18:10 | 48.84025 | 4.57014 | 27714 ft | 496 kts | 99° |
| 2026-04-25 18:10 | 48.83438 | 4.62178 | 28239 ft | 499 kts | 99° |
| 2026-04-25 18:10 | 48.82851 | 4.67315 | 28726 ft | 502 kts | 99° |
| 2026-04-25 18:11 | 48.82243 | 4.72619 | 29177 ft | 505 kts | 99° |
| 2026-04-25 18:11 | 48.81644 | 4.77819 | 29607 ft | 508 kts | 99° |
| 2026-04-25 18:11 | 48.81025 | 4.83174 | 30084 ft | 510 kts | 99° |
| 2026-04-25 18:11 | 48.80418 | 4.88406 | 30578 ft | 510 kts | 99° |
| 2026-04-25 18:12 | 48.79802 | 4.93690 | 31114 ft | 508 kts | 100° |
| 2026-04-25 18:12 | 48.79186 | 4.98952 | 31644 ft | 506 kts | 100° |
| 2026-04-25 18:12 | 48.78569 | 5.04203 | 32120 ft | 505 kts | 100° |
| 2026-04-25 18:12 | 48.77950 | 5.09444 | 32583 ft | 505 kts | 100° |
| 2026-04-25 18:13 | 48.77321 | 5.14748 | 33064 ft | 504 kts | 101° |
| 2026-04-25 18:13 | 48.76708 | 5.19899 | 33522 ft | 503 kts | 101° |
| 2026-04-25 18:13 | 48.76078 | 5.25180 | 33983 ft | 503 kts | 101° |
| 2026-04-25 18:14 | 48.74830 | 5.35561 | 34659 ft | 504 kts | 101° |
| 2026-04-25 18:14 | 48.74200 | 5.40769 | 35057 ft | 502 kts | 101° |
| 2026-04-25 18:14 | 48.72926 | 5.51238 | 35150 ft | 506 kts | 101° |
| 2026-04-25 18:15 | 48.71650 | 5.61650 | 35133 ft | 501 kts | 101° |
| 2026-04-25 18:15 | 48.70371 | 5.71996 | 35132 ft | 499 kts | 101° |
| 2026-04-25 18:16 | 48.69088 | 5.82306 | 35134 ft | 499 kts | 101° |
| 2026-04-25 18:17 | 48.67143 | 5.97776 | 35136 ft | 499 kts | 101° |
| 2026-04-25 18:17 | 48.65832 | 6.08100 | 35134 ft | 500 kts | 101° |
| 2026-04-25 18:18 | 48.64510 | 6.18440 | 35133 ft | 501 kts | 100° |
| 2026-04-25 18:18 | 48.63178 | 6.28782 | 35139 ft | 501 kts | 101° |
| 2026-04-25 18:19 | 48.61837 | 6.39115 | 35133 ft | 501 kts | 101° |
| 2026-04-25 18:19 | 48.60484 | 6.49461 | 35129 ft | 502 kts | 101° |
| 2026-04-25 18:20 | 48.59123 | 6.59792 | 35130 ft | 501 kts | 100° |
| 2026-04-25 18:20 | 48.57753 | 6.70115 | 35131 ft | 501 kts | 101° |
| 2026-04-25 18:21 | 48.56376 | 6.80421 | 35122 ft | 501 kts | 101° |
| 2026-04-25 18:21 | 48.54988 | 6.90726 | 35129 ft | 501 kts | 101° |
| 2026-04-25 18:22 | 48.53601 | 7.00955 | 35133 ft | 501 kts | 100° |
| 2026-04-25 18:22 | 48.52194 | 7.11259 | 35118 ft | 502 kts | 100° |
| 2026-04-25 18:23 | 48.50778 | 7.21564 | 35113 ft | 501 kts | 100° |
| 2026-04-25 18:23 | 48.49353 | 7.31854 | 35120 ft | 501 kts | 101° |
| 2026-04-25 18:24 | 48.47917 | 7.42139 | 35122 ft | 502 kts | 100° |
| 2026-04-25 18:24 | 48.46707 | 7.50765 | 35100 ft | 502 kts | 100° |
| 2026-04-25 18:25 | 48.45257 | 7.61046 | 35103 ft | 502 kts | 100° |
| 2026-04-25 18:25 | 48.43798 | 7.71318 | 35104 ft | 501 kts | 100° |
| 2026-04-25 18:26 | 48.42631 | 7.81653 | 35115 ft | 500 kts | 96° |
| 2026-04-25 18:26 | 48.41658 | 7.91944 | 35105 ft | 500 kts | 96° |
| 2026-04-25 18:27 | 48.40668 | 8.02315 | 35100 ft | 500 kts | 96° |
| 2026-04-25 18:27 | 48.39647 | 8.12672 | 35113 ft | 500 kts | 96° |
| 2026-04-25 18:28 | 48.38607 | 8.23019 | 35103 ft | 501 kts | 97° |
| 2026-04-25 18:28 | 48.37558 | 8.33367 | 35120 ft | 500 kts | 97° |
| 2026-04-25 18:29 | 48.35960 | 8.48955 | 35107 ft | 500 kts | 97° |
| 2026-04-25 18:30 | 48.33816 | 8.69549 | 35116 ft | 500 kts | 97° |
| 2026-04-25 18:30 | 48.32727 | 8.79872 | 35109 ft | 500 kts | 97° |
| 2026-04-25 18:31 | 48.31284 | 8.90102 | 35104 ft | 502 kts | 108° |
| 2026-04-25 18:31 | 48.28373 | 8.99629 | 35101 ft | 504 kts | 120° |
| 2026-04-25 18:32 | 48.24516 | 9.08409 | 35108 ft | 504 kts | 123° |
| 2026-04-25 18:32 | 48.20624 | 9.17146 | 35102 ft | 504 kts | 123° |
| 2026-04-25 18:33 | 48.16764 | 9.25899 | 35100 ft | 503 kts | 123° |
| 2026-04-25 18:33 | 48.12893 | 9.34641 | 35097 ft | 503 kts | 123° |
| 2026-04-25 18:34 | 48.08949 | 9.43297 | 35103 ft | 503 kts | 123° |
| 2026-04-25 18:34 | 48.05060 | 9.52005 | 35099 ft | 504 kts | 123° |
| 2026-04-25 18:35 | 48.01211 | 9.60741 | 35095 ft | 503 kts | 123° |
| 2026-04-25 18:35 | 47.97360 | 9.69470 | 35096 ft | 503 kts | 123° |
| 2026-04-25 18:36 | 47.93499 | 9.78177 | 35098 ft | 503 kts | 123° |
| 2026-04-25 18:36 | 47.89630 | 9.86871 | 35100 ft | 503 kts | 123° |
| 2026-04-25 18:37 | 47.85754 | 9.95564 | 35101 ft | 503 kts | 122° |
| 2026-04-25 18:37 | 47.82467 | 10.04730 | 35096 ft | 502 kts | 110° |
| 2026-04-25 18:38 | 47.79979 | 10.14410 | 35101 ft | 501 kts | 109° |
| 2026-04-25 18:38 | 47.77486 | 10.24099 | 35112 ft | 502 kts | 109° |
| 2026-04-25 18:39 | 47.74951 | 10.33769 | 35107 ft | 502 kts | 110° |
| 2026-04-25 18:39 | 47.72393 | 10.43420 | 35113 ft | 502 kts | 110° |
| 2026-04-25 18:40 | 47.69824 | 10.53063 | 35110 ft | 502 kts | 110° |
| 2026-04-25 18:40 | 47.67263 | 10.62644 | 35116 ft | 503 kts | 110° |
| 2026-04-25 18:41 | 47.64679 | 10.72278 | 35107 ft | 503 kts | 110° |
| 2026-04-25 18:41 | 47.62086 | 10.81903 | 35097 ft | 503 kts | 110° |
| 2026-04-25 18:42 | 47.59906 | 10.89964 | 35096 ft | 503 kts | 110° |
| 2026-04-25 18:42 | 47.56876 | 11.01123 | 35097 ft | 502 kts | 110° |
| 2026-04-25 18:43 | 47.54263 | 11.10705 | 35071 ft | 502 kts | 110° |
| 2026-04-25 18:43 | 47.51640 | 11.20291 | 35071 ft | 503 kts | 110° |
| 2026-04-25 18:44 | 47.49010 | 11.29859 | 35062 ft | 502 kts | 110° |
| 2026-04-25 18:44 | 47.46372 | 11.39418 | 35047 ft | 501 kts | 110° |
| 2026-04-25 18:45 | 47.43738 | 11.48926 | 35051 ft | 500 kts | 110° |
| 2026-04-25 18:45 | 47.41093 | 11.58430 | 35073 ft | 501 kts | 110° |
| 2026-04-25 18:46 | 47.38430 | 11.67963 | 35041 ft | 503 kts | 110° |
| 2026-04-25 18:46 | 47.37130 | 11.72800 | 34196 ft | 514 kts | 107° |
| 2026-04-25 18:46 | 47.36122 | 11.77830 | 33213 ft | 505 kts | 101° |
| 2026-04-25 18:47 | 47.35422 | 11.82801 | 32659 ft | 486 kts | 96° |
| 2026-04-25 18:47 | 47.35169 | 11.87715 | 32088 ft | 478 kts | 84° |
| 2026-04-25 18:47 | 47.35617 | 11.92501 | 31559 ft | 468 kts | 73° |
| 2026-04-25 18:47 | 47.36575 | 11.97052 | 31043 ft | 460 kts | 65° |
| 2026-04-25 18:48 | 47.37948 | 12.01261 | 30515 ft | 452 kts | 57° |
| 2026-04-25 18:48 | 47.39482 | 12.05287 | 30013 ft | 449 kts | 57° |
| 2026-04-25 18:48 | 47.41006 | 12.09290 | 29414 ft | 446 kts | 58° |
| 2026-04-25 18:48 | 47.42507 | 12.13264 | 28887 ft | 442 kts | 58° |
| 2026-04-25 18:49 | 47.43987 | 12.17213 | 28381 ft | 437 kts | 58° |
| 2026-04-25 18:49 | 47.45446 | 12.21137 | 27858 ft | 434 kts | 58° |
| 2026-04-25 18:49 | 47.46886 | 12.25030 | 27375 ft | 429 kts | 59° |
| 2026-04-25 18:49 | 47.48308 | 12.28888 | 26880 ft | 426 kts | 59° |
| 2026-04-25 18:50 | 47.49722 | 12.32729 | 26375 ft | 424 kts | 59° |
| 2026-04-25 18:50 | 47.51122 | 12.36541 | 25914 ft | 421 kts | 59° |
| 2026-04-25 18:50 | 47.52506 | 12.40319 | 25898 ft | 419 kts | 59° |
| 2026-04-25 18:50 | 47.53921 | 12.44175 | 25872 ft | 432 kts | 59° |
| 2026-04-25 18:51 | 47.55360 | 12.48107 | 25883 ft | 438 kts | 59° |
| 2026-04-25 18:51 | 47.56325 | 12.50746 | 25880 ft | 439 kts | 59° |
| 2026-04-25 18:51 | 47.58262 | 12.56060 | 25856 ft | 438 kts | 59° |
| 2026-04-25 18:51 | 47.59705 | 12.60030 | 25864 ft | 437 kts | 59° |
| 2026-04-25 18:52 | 47.61142 | 12.63985 | 25860 ft | 436 kts | 59° |
| 2026-04-25 18:52 | 47.62575 | 12.67938 | 25868 ft | 436 kts | 59° |
| 2026-04-25 18:52 | 47.64012 | 12.71903 | 25873 ft | 437 kts | 59° |
| 2026-04-25 18:52 | 47.65452 | 12.75880 | 25896 ft | 438 kts | 59° |
| 2026-04-25 18:53 | 47.66895 | 12.79874 | 25866 ft | 440 kts | 59° |
| 2026-04-25 18:53 | 47.68340 | 12.83878 | 25874 ft | 441 kts | 59° |
| 2026-04-25 18:53 | 47.69789 | 12.87899 | 25873 ft | 442 kts | 59° |
| 2026-04-25 18:53 | 47.71238 | 12.91932 | 25881 ft | 442 kts | 59° |
| 2026-04-25 18:54 | 47.74113 | 12.99950 | 25868 ft | 444 kts | 59° |
| 2026-04-25 18:54 | 47.75562 | 13.04000 | 25864 ft | 443 kts | 59° |
| 2026-04-25 18:54 | 47.77006 | 13.08039 | 25872 ft | 443 kts | 59° |
| 2026-04-25 18:55 | 47.78447 | 13.12078 | 25880 ft | 442 kts | 60° |
| 2026-04-25 18:55 | 47.79886 | 13.16118 | 25869 ft | 441 kts | 59° |
| 2026-04-25 18:55 | 47.81321 | 13.20149 | 25859 ft | 442 kts | 60° |
| 2026-04-25 18:55 | 47.82758 | 13.24194 | 25863 ft | 442 kts | 60° |
| 2026-04-25 18:56 | 47.84194 | 13.28244 | 25870 ft | 443 kts | 60° |
| 2026-04-25 18:56 | 47.85634 | 13.32309 | 25869 ft | 444 kts | 60° |
| 2026-04-25 18:56 | 47.87073 | 13.36379 | 25873 ft | 445 kts | 60° |
| 2026-04-25 18:56 | 47.88514 | 13.40460 | 25874 ft | 446 kts | 59° |
| 2026-04-25 18:57 | 47.89956 | 13.44552 | 25867 ft | 446 kts | 59° |
| 2026-04-25 18:57 | 47.91319 | 13.48694 | 25860 ft | 446 kts | 67° |
| 2026-04-25 18:57 | 47.91951 | 13.53220 | 25861 ft | 450 kts | 88° |
| 2026-04-25 18:57 | 47.91942 | 13.54789 | 25868 ft | 447 kts | 91° |
| 2026-04-25 18:58 | 47.91757 | 13.62509 | 25814 ft | 449 kts | 90° |
| 2026-04-25 18:58 | 47.91699 | 13.71806 | 25035 ft | 450 kts | 89° |
| 2026-04-25 18:58 | 47.91684 | 13.76476 | 24638 ft | 450 kts | 89° |
| 2026-04-25 18:59 | 47.91632 | 13.85786 | 24019 ft | 447 kts | 89° |
| 2026-04-25 18:59 | 47.91566 | 13.95007 | 23418 ft | 443 kts | 89° |
| 2026-04-25 19:00 | 47.91494 | 14.04142 | 22792 ft | 439 kts | 90° |
| 2026-04-25 19:00 | 47.91455 | 14.08669 | 22456 ft | 437 kts | 89° |
| 2026-04-25 19:01 | 47.91378 | 14.17692 | 21848 ft | 433 kts | 90° |
| 2026-04-25 19:01 | 47.91337 | 14.22107 | 21572 ft | 431 kts | 90° |
| 2026-04-25 19:01 | 47.91294 | 14.26562 | 21297 ft | 429 kts | 90° |
| 2026-04-25 19:01 | 47.91248 | 14.30995 | 21029 ft | 427 kts | 90° |
| 2026-04-25 19:02 | 47.91157 | 14.39819 | 20476 ft | 424 kts | 90° |
| 2026-04-25 19:02 | 47.91105 | 14.44200 | 20198 ft | 422 kts | 90° |
| 2026-04-25 19:02 | 47.91052 | 14.48571 | 19939 ft | 421 kts | 90° |
| 2026-04-25 19:03 | 47.90980 | 14.54380 | 19601 ft | 418 kts | 90° |
| 2026-04-25 19:03 | 47.90889 | 14.61571 | 19135 ft | 417 kts | 90° |
| 2026-04-25 19:03 | 47.90833 | 14.65883 | 18908 ft | 415 kts | 90° |
| 2026-04-25 19:04 | 47.90717 | 14.74442 | 18419 ft | 412 kts | 90° |
| 2026-04-25 19:04 | 47.90655 | 14.78705 | 18170 ft | 410 kts | 90° |
| 2026-04-25 19:05 | 47.90527 | 14.87171 | 17672 ft | 407 kts | 90° |
| 2026-04-25 19:05 | 47.90393 | 14.95578 | 17204 ft | 405 kts | 90° |
| 2026-04-25 19:05 | 47.90325 | 14.99760 | 16965 ft | 403 kts | 90° |
| 2026-04-25 19:06 | 47.90255 | 15.03931 | 16748 ft | 402 kts | 90° |
| 2026-04-25 19:06 | 47.90114 | 15.12227 | 16176 ft | 399 kts | 90° |
| 2026-04-25 19:06 | 47.90041 | 15.16351 | 15653 ft | 398 kts | 90° |
| 2026-04-25 19:07 | 47.89890 | 15.24586 | 14620 ft | 397 kts | 90° |
| 2026-04-25 19:07 | 47.89815 | 15.28692 | 14125 ft | 395 kts | 90° |
| 2026-04-25 19:08 | 47.89699 | 15.36807 | 13253 ft | 388 kts | 88° |
| 2026-04-25 19:08 | 47.89747 | 15.40809 | 13023 ft | 385 kts | 87° |
| 2026-04-25 19:09 | 47.89960 | 15.52392 | 13011 ft | 365 kts | 86° |
| 2026-04-25 19:09 | 47.89981 | 15.53626 | 13014 ft | 366 kts | 87° |
| 2026-04-25 19:09 | 47.90120 | 15.63721 | 12804 ft | 355 kts | 87° |
| 2026-04-25 19:10 | 47.90161 | 15.67284 | 12431 ft | 333 kts | 87° |
| 2026-04-25 19:10 | 47.90197 | 15.70656 | 11923 ft | 318 kts | 87° |
| 2026-04-25 19:10 | 47.90219 | 15.72816 | 11477 ft | 312 kts | 87° |
| 2026-04-25 19:10 | 47.90253 | 15.76016 | 10604 ft | 308 kts | 86° |
| 2026-04-25 19:11 | 47.90286 | 15.79202 | 9833 ft | 306 kts | 86° |
| 2026-04-25 19:11 | 47.90320 | 15.82412 | 8588 ft | 321 kts | 86° |
| 2026-04-25 19:11 | 47.90357 | 15.85877 | 8312 ft | 344 kts | 87° |
| 2026-04-25 19:11 | 47.90394 | 15.89475 | 8114 ft | 350 kts | 87° |
| 2026-04-25 19:12 | 47.90425 | 15.93116 | 8047 ft | 351 kts | 87° |
| 2026-04-25 19:12 | 47.90456 | 15.96729 | 8019 ft | 348 kts | 88° |
| 2026-04-25 19:12 | 47.90487 | 16.00331 | 8032 ft | 347 kts | 88° |
| 2026-04-25 19:12 | 47.90516 | 16.03939 | 8032 ft | 349 kts | 88° |
| 2026-04-25 19:13 | 47.90545 | 16.07557 | 8014 ft | 350 kts | 87° |
| 2026-04-25 19:13 | 47.90572 | 16.11178 | 8025 ft | 349 kts | 88° |
| 2026-04-25 19:13 | 47.90597 | 16.14804 | 8000 ft | 350 kts | 87° |
| 2026-04-25 19:13 | 47.90621 | 16.18428 | 8020 ft | 350 kts | 88° |
| 2026-04-25 19:14 | 47.90644 | 16.22060 | 8014 ft | 350 kts | 87° |
| 2026-04-25 19:14 | 47.90659 | 16.24461 | 8015 ft | 350 kts | 88° |
| 2026-04-25 19:14 | 47.90688 | 16.29269 | 8015 ft | 350 kts | 88° |
| 2026-04-25 19:14 | 47.90709 | 16.32879 | 7964 ft | 347 kts | 88° |
| 2026-04-25 19:15 | 47.90727 | 16.36457 | 7685 ft | 344 kts | 88° |
| 2026-04-25 19:15 | 47.90744 | 16.39983 | 7327 ft | 338 kts | 88° |
| 2026-04-25 19:15 | 47.90760 | 16.43469 | 6865 ft | 335 kts | 88° |
| 2026-04-25 19:15 | 47.90776 | 16.46929 | 6427 ft | 333 kts | 88° |
| 2026-04-25 19:16 | 47.90790 | 16.50367 | 5938 ft | 331 kts | 88° |
| 2026-04-25 19:16 | 47.90803 | 16.53791 | 5438 ft | 330 kts | 88° |
| 2026-04-25 19:16 | 47.90815 | 16.57193 | 5004 ft | 327 kts | 87° |
| 2026-04-25 19:16 | 47.90825 | 16.60561 | 4569 ft | 324 kts | 88° |
| 2026-04-25 19:17 | 47.90835 | 16.63900 | 4143 ft | 320 kts | 87° |
| 2026-04-25 19:17 | 47.90845 | 16.67155 | 4002 ft | 307 kts | 88° |
| 2026-04-25 19:17 | 47.90906 | 16.70215 | 3968 ft | 282 kts | 78° |
| 2026-04-25 19:17 | 47.91565 | 16.72797 | 3938 ft | 257 kts | 53° |
| 2026-04-25 19:18 | 47.92636 | 16.74876 | 3890 ft | 250 kts | 46° |
| 2026-04-25 19:18 | 47.93750 | 16.76825 | 3852 ft | 243 kts | 45° |
| 2026-04-25 19:18 | 47.94831 | 16.78700 | 3687 ft | 235 kts | 45° |
| 2026-04-25 19:18 | 47.95892 | 16.80545 | 3572 ft | 232 kts | 45° |
| 2026-04-25 19:19 | 47.97012 | 16.82212 | 3386 ft | 225 kts | 26° |
| 2026-04-25 19:19 | 47.98439 | 16.82811 | 3303 ft | 208 kts | 352° |
| 2026-04-25 19:19 | 47.99760 | 16.82180 | 3209 ft | 197 kts | 329° |
| 2026-04-25 19:19 | 48.00532 | 16.81507 | 3159 ft | 191 kts | 326° |
| 2026-04-25 19:20 | 48.01964 | 16.80176 | 3104 ft | 174 kts | 326° |
| 2026-04-25 19:20 | 48.02996 | 16.79211 | 3032 ft | 175 kts | 325° |
| 2026-04-25 19:20 | 48.03907 | 16.78051 | 2991 ft | 172 kts | 302° |
| 2026-04-25 19:20 | 48.04540 | 16.76518 | 3009 ft | 176 kts | 304° |
| 2026-04-25 19:21 | 48.05179 | 16.74998 | 3010 ft | 167 kts | 300° |
| 2026-04-25 19:21 | 48.06167 | 16.72083 | 2670 ft | 148 kts | 297° |
| 2026-04-25 19:21 | 48.06616 | 16.70712 | 2503 ft | 144 kts | 296° |
| 2026-04-25 19:22 | 48.07056 | 16.69360 | 2306 ft | 146 kts | 296° |
| 2026-04-25 19:22 | 48.07505 | 16.67984 | 2115 ft | 148 kts | 297° |
| 2026-04-25 19:22 | 48.08341 | 16.65422 | 1750 ft | 123 kts | 297° |
| 2026-04-25 19:23 | 48.08705 | 16.64300 | 1576 ft | 121 kts | 297° |
| 2026-04-25 19:23 | 48.09488 | 16.61898 | 1272 ft | 133 kts | 295° |
| 2026-04-25 19:23 | 48.09898 | 16.60644 | 1085 ft | 134 kts | 295° |
| 2026-04-25 19:24 | 48.10300 | 16.59409 | 903 ft | 131 kts | 295° |
| 2026-04-25 19:24 | 48.10700 | 16.58179 | 730 ft | 132 kts | 295° |
| 2026-04-25 19:24 | 48.11468 | 16.55841 | 634 ft | 100 kts | 296° |
| 2026-04-25 19:25 | 48.11820 | 16.54778 | 627 ft | 30 kts | 303° |
| 2026-04-25 19:25 | 48.11962 | 16.54592 | 627 ft | 16 kts | 327° |
| 2026-04-25 19:25 | 48.12026 | 16.54549 | 623 ft | 0 kts | 356° |
| 2026-04-25 19:26 | 48.12029 | 16.54549 | 623 ft | 0 kts | 356° |
| 2026-04-25 19:27 | 48.12033 | 16.54549 | 622 ft | 2 kts | 358° |
| 2026-04-25 19:27 | 48.12079 | 16.54568 | 618 ft | 8 kts | 24° |
| 2026-04-25 19:27 | 48.12128 | 16.54620 | 622 ft | 9 kts | 60° |
| 2026-04-25 19:28 | 48.12122 | 16.54713 | 617 ft | 9 kts | 111° |
| 2026-04-25 19:28 | 48.12095 | 16.54801 | 624 ft | 9 kts | 115° |
| 2026-04-25 19:28 | 48.12066 | 16.54890 | 622 ft | 10 kts | 115° |
| 2026-04-25 19:28 | 48.12045 | 16.54955 | 627 ft | 3 kts | 116° |
| 2026-04-25 19:29 | 48.12040 | 16.54983 | 619 ft | 3 kts | 97° |
| 2026-04-25 19:29 | 48.12052 | 16.55008 | 626 ft | 4 kts | 28° |
| 2026-04-25 19:29 | 48.12089 | 16.55031 | 621 ft | 8 kts | 22° |
| 2026-04-25 19:29 | 48.12125 | 16.55055 | 620 ft | 2 kts | 25° |
| 2026-04-25 19:30 | 48.12139 | 16.55065 | 616 ft | 0 kts | 25° |